Time;durP1;ratioP1;P1;durP2;ratioP2;P2;SDS_P1;SDS_P2;PMS_P1;PMS_P2;Temp;Humidity;BMP_temperature;BMP_pressure;BME280_temperature;BME280_humidity;BME280_pressure;Samples;Min_cycle;Max_cycle;Signal;HPM_P1;HPM_P2
2021/06/11 00:02:22;;;;;;;2.50;0.80;;;21.40;56.60;;;;;;5082128;28;20483;-59
2021/06/11 00:04:53;;;;;;;0.87;0.50;;;21.40;57.10;;;;;;5082444;28;20418;-60
2021/06/11 00:07:25;;;;;;;1.20;0.87;;;21.20;56.40;;;;;;5082739;28;20456;-59
2021/06/11 00:09:56;;;;;;;0.70;0.70;;;21.10;56.70;;;;;;5081410;28;20433;-59
2021/06/11 00:12:26;;;;;;;0.90;0.90;;;20.90;57.50;;;;;;5082640;28;20478;-59
2021/06/11 00:14:58;;;;;;;1.80;0.77;;;20.90;57.20;;;;;;5082399;28;20443;-59
2021/06/11 00:17:28;;;;;;;1.03;0.80;;;21.00;57.10;;;;;;5066974;28;20575;-60
2021/06/11 00:19:59;;;;;;;0.80;0.70;;;20.80;58.30;;;;;;5082113;28;20445;-60
2021/06/11 00:22:31;;;;;;;0.97;0.57;;;20.80;58.00;;;;;;5082454;28;20453;-60
2021/06/11 00:25:01;;;;;;;0.67;0.60;;;20.90;57.40;;;;;;5081471;28;20469;-59
2021/06/11 00:27:32;;;;;;;0.67;0.67;;;20.80;58.60;;;;;;5066657;28;20519;-60
2021/06/11 00:30:02;;;;;;;1.37;0.73;;;20.70;58.60;;;;;;5082034;28;20426;-59
2021/06/11 00:32:33;;;;;;;1.10;0.77;;;20.60;59.60;;;;;;5081305;28;20470;-60
2021/06/11 00:35:04;;;;;;;1.57;0.90;;;20.60;59.30;;;;;;5081647;28;20426;-56
2021/06/11 00:37:36;;;;;;;1.20;0.63;;;20.70;59.20;;;;;;5070712;28;20487;-59
2021/06/11 00:40:11;;;;;;;2.30;0.60;;;20.80;60.30;;;;;;5077383;28;20489;-60
2021/06/11 00:42:41;;;;;;;0.70;0.60;;;20.80;59.70;;;;;;5072953;28;20486;-60
2021/06/11 00:45:13;;;;;;;0.80;0.70;;;20.80;58.10;;;;;;5080315;28;20530;-60
2021/06/11 00:47:45;;;;;;;1.47;0.70;;;20.70;57.80;;;;;;5078696;28;20459;-55
2021/06/11 00:50:18;;;;;;;0.97;0.87;;;20.80;60.00;;;;;;5081328;28;20451;-57
2021/06/11 00:52:52;;;;;;;0.50;0.50;;;20.80;58.80;;;;;;5085713;28;20477;-57
2021/06/11 00:55:23;;;;;;;0.57;0.57;;;20.50;59.70;;;;;;5084782;28;20447;-58
2021/06/11 00:57:53;;;;;;;2.00;0.80;;;20.30;61.00;;;;;;5086394;28;20422;-57
2021/06/11 01:00:25;;;;;;;1.80;0.70;;;20.20;61.30;;;;;;5078980;28;20448;-58
2021/06/11 01:02:55;;;;;;;2.07;0.60;;;20.20;61.70;;;;;;5085595;28;20462;-57
2021/06/11 01:05:26;;;;;;;2.10;0.70;;;20.20;61.10;;;;;;5084502;28;20429;-55
2021/06/11 01:07:59;;;;;;;1.47;0.70;;;20.30;61.90;;;;;;5085169;28;20455;-58
2021/06/11 01:10:30;;;;;;;1.47;0.90;;;20.50;63.30;;;;;;5083752;28;20435;-59
2021/06/11 01:13:01;;;;;;;1.00;0.90;;;20.50;62.10;;;;;;5085836;28;20435;-57
2021/06/11 01:15:32;;;;;;;1.37;0.80;;;20.50;64.00;;;;;;5085093;28;20422;-56
2021/06/11 01:18:02;;;;;;;0.90;0.60;;;20.50;62.50;;;;;;5085605;28;20491;-58
2021/06/11 01:20:33;;;;;;;1.13;0.70;;;20.50;63.90;;;;;;5079696;28;20426;-58
2021/06/11 01:23:27;;;;;;;1.80;1.00;;;20.50;64.50;;;;;;5084114;28;20426;-59
2021/06/11 01:26:12;;;;;;;2.30;2.10;;;20.40;62.40;;;;;;5069767;28;20443;-61
2021/06/11 01:28:43;;;;;;;0.60;0.60;;;20.50;61.80;;;;;;5081095;28;20418;-59
2021/06/11 01:31:14;;;;;;;2.73;2.63;;;20.30;63.30;;;;;;5085434;28;20471;-60
2021/06/11 01:33:48;;;;;;;1.50;1.27;;;20.20;63.50;;;;;;5084466;28;20454;-59
2021/06/11 01:36:24;;;;;;;1.10;0.87;;;20.20;63.90;;;;;;5084974;28;20422;-59
2021/06/11 01:38:56;;;;;;;1.20;0.90;;;20.10;64.20;;;;;;5084860;28;20422;-59
2021/06/11 01:41:33;;;;;;;0.60;0.60;;;20.00;63.60;;;;;;5084899;28;20487;-59
2021/06/11 01:44:04;;;;;;;1.20;0.80;;;20.00;63.30;;;;;;5084792;28;20455;-60
2021/06/11 01:46:36;;;;;;;0.97;0.60;;;19.90;64.30;;;;;;5085095;28;20445;-59
2021/06/11 01:49:07;;;;;;;0.67;0.67;;;19.80;64.80;;;;;;5084224;28;20429;-59
2021/06/11 01:51:39;;;;;;;3.83;0.80;;;19.80;64.30;;;;;;5084964;28;20449;-58
2021/06/11 01:54:13;;;;;;;0.50;0.50;;;19.80;65.70;;;;;;5081790;28;20564;-58
2021/06/11 01:56:46;;;;;;;1.50;0.70;;;19.60;66.90;;;;;;5085040;28;20897;-59
2021/06/11 01:59:18;;;;;;;0.67;0.67;;;19.60;67.30;;;;;;5084837;28;20429;-59
2021/06/11 02:01:50;;;;;;;2.00;0.80;;;19.50;67.80;;;;;;5085097;28;20467;-59
2021/06/11 02:04:22;;;;;;;0.60;0.60;;;19.60;68.00;;;;;;5083583;28;20426;-60
2021/06/11 02:06:53;;;;;;;1.57;0.70;;;19.70;66.30;;;;;;5084987;28;20496;-60
2021/06/11 02:09:24;;;;;;;1.17;1.07;;;19.60;66.10;;;;;;5083580;28;20456;-59
2021/06/11 02:11:58;;;;;;;1.50;0.70;;;19.60;67.40;;;;;;5083955;28;20440;-60
2021/06/11 02:14:29;;;;;;;1.43;0.60;;;19.50;65.00;;;;;;5083403;28;20507;-59
2021/06/11 02:17:01;;;;;;;0.70;0.70;;;19.40;67.20;;;;;;5084860;28;20909;-59
2021/06/11 02:19:34;;;;;;;0.80;0.80;;;19.30;67.90;;;;;;5083253;28;20448;-59
2021/06/11 02:22:06;;;;;;;1.90;1.07;;;19.20;69.80;;;;;;5083895;28;20475;-59
2021/06/11 02:24:37;;;;;;;1.20;1.10;;;19.30;67.40;;;;;;5082616;28;20454;-59
2021/06/11 02:27:12;;;;;;;3.13;0.90;;;19.30;68.90;;;;;;5081564;28;20487;-59
2021/06/11 02:29:43;;;;;;;1.57;0.80;;;19.30;70.10;;;;;;5076702;28;20479;-59
2021/06/11 02:32:13;;;;;;;0.57;0.57;;;19.10;69.10;;;;;;5068585;28;20434;-59
2021/06/11 02:34:44;;;;;;;0.80;0.60;;;19.10;70.00;;;;;;5076549;28;20478;-59
2021/06/11 02:37:15;;;;;;;0.77;0.70;;;19.00;71.30;;;;;;5080091;28;20484;-59
2021/06/11 02:39:45;;;;;;;1.90;0.87;;;19.00;72.60;;;;;;5080231;28;20492;-59
2021/06/11 02:42:17;;;;;;;1.20;0.70;;;19.10;74.60;;;;;;5073919;28;20463;-59
2021/06/11 02:44:53;;;;;;;1.70;1.07;;;19.00;76.50;;;;;;5073999;28;20549;-59
2021/06/11 02:47:29;;;;;;;1.17;0.93;;;18.80;78.30;;;;;;5079872;28;20448;-60
2021/06/11 02:50:03;;;;;;;0.90;0.80;;;18.70;78.50;;;;;;5079656;28;20533;-60
2021/06/11 02:52:35;;;;;;;1.10;1.00;;;18.60;80.10;;;;;;5081371;28;20425;-60
2021/06/11 02:55:07;;;;;;;2.23;0.93;;;18.60;79.80;;;;;;5081663;28;20823;-60
2021/06/11 02:57:48;;;;;;;0.60;0.60;;;18.50;80.10;;;;;;5083763;28;20936;-60
2021/06/11 03:00:21;;;;;;;1.03;0.97;;;18.30;82.20;;;;;;5083605;28;20451;-59
2021/06/11 03:02:55;;;;;;;1.80;0.70;;;18.20;83.40;;;;;;5082825;28;20559;-59
2021/06/11 03:05:31;;;;;;;1.60;0.80;;;18.10;84.00;;;;;;5082240;28;21881;-59
2021/06/11 03:08:06;;;;;;;2.20;1.07;;;18.20;84.00;;;;;;5083729;28;20443;-59
2021/06/11 03:10:38;;;;;;;3.00;0.80;;;18.20;83.60;;;;;;5082160;28;20490;-59
2021/06/11 03:13:11;;;;;;;1.40;0.60;;;18.00;83.20;;;;;;5083183;28;20490;-59
2021/06/11 03:15:42;;;;;;;1.50;1.00;;;17.90;83.20;;;;;;5066886;28;20426;-59
2021/06/11 03:18:24;;;;;;;0.73;0.73;;;17.80;83.40;;;;;;5083371;28;20454;-58
2021/06/11 03:21:00;;;;;;;1.23;0.90;;;17.70;85.00;;;;;;5082868;28;20513;-59
2021/06/11 03:23:43;;;;;;;2.37;1.27;;;17.60;85.70;;;;;;5082996;28;20506;-59
2021/06/11 03:26:21;;;;;;;1.20;1.13;;;17.60;85.90;;;;;;5082269;28;20473;-59
2021/06/11 03:28:58;;;;;;;0.90;0.90;;;17.60;86.00;;;;;;5083020;28;20513;-59
2021/06/11 03:31:33;;;;;;;0.80;0.80;;;17.70;85.60;;;;;;5083381;28;20845;-60
2021/06/11 03:34:07;;;;;;;0.63;0.63;;;17.50;87.30;;;;;;5082678;28;20473;-59
2021/06/11 03:36:41;;;;;;;1.13;1.03;;;17.40;89.10;;;;;;5082749;28;20520;-60
2021/06/11 03:39:17;;;;;;;1.77;1.30;;;17.40;89.40;;;;;;5067022;28;20443;-59
2021/06/11 03:41:48;;;;;;;1.00;0.90;;;17.40;88.30;;;;;;5082990;28;20537;-59
2021/06/11 03:44:21;;;;;;;2.70;1.20;;;17.30;89.40;;;;;;5082867;28;20483;-59
2021/06/11 03:46:54;;;;;;;0.80;0.63;;;17.40;90.00;;;;;;5082697;28;20482;-60
2021/06/11 03:49:27;;;;;;;1.40;1.13;;;17.40;90.30;;;;;;5082480;28;20877;-60
2021/06/11 03:51:58;;;;;;;1.00;0.90;;;17.30;90.80;;;;;;5072726;28;20473;-61
2021/06/11 03:54:30;;;;;;;1.20;1.10;;;17.30;91.20;;;;;;5081858;28;20432;-60
2021/06/11 03:57:03;;;;;;;1.03;1.03;;;17.20;91.20;;;;;;5081342;28;20451;-60
2021/06/11 03:59:40;;;;;;;1.10;1.00;;;17.10;92.00;;;;;;5082223;28;20948;-60
2021/06/11 04:02:11;;;;;;;1.07;0.97;;;17.10;92.50;;;;;;5080840;28;20548;-60
2021/06/11 04:04:44;;;;;;;1.57;0.73;;;17.00;92.30;;;;;;5082343;28;20465;-59
2021/06/11 04:07:19;;;;;;;1.20;1.10;;;16.90;93.30;;;;;;5081940;28;20477;-60
2021/06/11 04:09:51;;;;;;;1.07;0.97;;;16.90;93.00;;;;;;5080405;28;21116;-59
2021/06/11 04:12:26;;;;;;;1.70;1.10;;;16.90;93.50;;;;;;5083022;28;20450;-59
2021/06/11 04:14:59;;;;;;;1.57;1.10;;;16.90;93.40;;;;;;5082404;28;20451;-60
2021/06/11 04:17:32;;;;;;;2.03;1.37;;;16.90;94.20;;;;;;5084206;28;20518;-60
2021/06/11 04:20:04;;;;;;;1.50;1.40;;;16.90;93.40;;;;;;5086126;28;20447;-59
2021/06/11 04:22:36;;;;;;;1.77;1.67;;;16.80;93.70;;;;;;5086288;28;20503;-59
2021/06/11 04:25:08;;;;;;;1.50;1.40;;;16.80;93.10;;;;;;5082981;28;20430;-59
2021/06/11 04:27:40;;;;;;;1.07;1.00;;;16.80;93.30;;;;;;5086704;28;20497;-60
2021/06/11 04:30:14;;;;;;;1.27;1.17;;;16.70;93.60;;;;;;5085914;28;20483;-60
2021/06/11 04:32:45;;;;;;;2.13;1.53;;;16.70;93.70;;;;;;5086219;28;20867;-60
2021/06/11 04:35:16;;;;;;;1.57;1.30;;;16.60;94.00;;;;;;5086110;28;20864;-60
2021/06/11 04:37:46;;;;;;;2.00;1.53;;;16.60;94.70;;;;;;5084987;28;20924;-60
2021/06/11 04:40:17;;;;;;;1.20;1.20;;;16.50;95.40;;;;;;5085199;28;20462;-60
2021/06/11 04:42:48;;;;;;;1.93;1.40;;;16.60;96.00;;;;;;5086123;28;20475;-60
2021/06/11 04:45:23;;;;;;;1.53;1.40;;;16.60;96.80;;;;;;5085862;28;20475;-60
2021/06/11 04:47:59;;;;;;;2.10;1.60;;;16.60;96.40;;;;;;5085879;28;20450;-61
2021/06/11 04:50:30;;;;;;;2.10;2.00;;;16.60;96.10;;;;;;5085601;28;20543;-59
2021/06/11 04:53:00;;;;;;;2.83;2.37;;;16.70;95.30;;;;;;5085134;28;20471;-60
2021/06/11 04:55:33;;;;;;;2.40;1.90;;;16.60;95.40;;;;;;5084401;28;20474;-59
2021/06/11 04:58:03;;;;;;;2.50;2.30;;;16.50;95.80;;;;;;5085518;28;20730;-59
2021/06/11 05:00:37;;;;;;;3.23;2.03;;;16.40;96.20;;;;;;5085671;28;20475;-59
2021/06/11 05:03:08;;;;;;;2.07;1.87;;;16.40;97.10;;;;;;5085287;28;20482;-58
2021/06/11 05:05:43;;;;;;;1.40;1.30;;;16.40;97.20;;;;;;5084036;28;20543;-60
2021/06/11 05:08:14;;;;;;;1.73;1.37;;;16.30;96.90;;;;;;5084891;28;20455;-61
2021/06/11 05:10:44;;;;;;;1.50;1.40;;;16.30;97.10;;;;;;5077149;28;20451;-61
2021/06/11 05:13:17;;;;;;;1.60;1.50;;;16.30;97.30;;;;;;5086270;28;20444;-59
2021/06/11 05:15:50;;;;;;;1.57;1.47;;;16.30;96.70;;;;;;5084990;28;20459;-61
2021/06/11 05:18:27;;;;;;;1.40;1.30;;;16.30;96.60;;;;;;5085515;28;20455;-61
2021/06/11 05:20:58;;;;;;;1.57;1.47;;;16.30;97.00;;;;;;5084856;28;20455;-61
2021/06/11 05:23:29;;;;;;;1.57;1.30;;;16.20;96.80;;;;;;5085159;28;20530;-60
2021/06/11 05:26:00;;;;;;;1.47;1.37;;;16.40;97.10;;;;;;5076397;28;20422;-59
2021/06/11 05:28:30;;;;;;;1.50;1.40;;;16.30;96.80;;;;;;5085485;28;20482;-60
2021/06/11 05:31:02;;;;;;;2.60;1.80;;;16.20;97.80;;;;;;5084380;28;20479;-61
2021/06/11 05:33:33;;;;;;;1.60;1.50;;;16.20;98.30;;;;;;5084690;28;20470;-60
2021/06/11 05:36:04;;;;;;;1.60;1.50;;;16.20;98.60;;;;;;5076297;28;20475;-60
2021/06/11 05:38:34;;;;;;;1.70;1.60;;;16.20;98.90;;;;;;5072561;28;20497;-60
2021/06/11 05:41:05;;;;;;;2.30;1.77;;;16.10;99.20;;;;;;5084154;28;20470;-60
2021/06/11 05:43:37;;;;;;;1.50;1.40;;;15.90;99.70;;;;;;5085061;28;20507;-60
2021/06/11 05:46:11;;;;;;;1.90;1.80;;;15.80;99.90;;;;;;5084594;28;20474;-60
2021/06/11 05:48:43;;;;;;;1.70;1.60;;;15.80;99.90;;;;;;5084744;28;20473;-60
2021/06/11 05:51:13;;;;;;;2.17;2.03;;;15.70;99.90;;;;;;5084641;28;20550;-60
2021/06/11 05:53:44;;;;;;;1.77;1.60;;;15.60;99.90;;;;;;5084187;28;20444;-60
2021/06/11 05:56:14;;;;;;;1.70;1.60;;;15.60;99.90;;;;;;5083715;28;20514;-60
2021/06/11 05:58:46;;;;;;;1.63;1.53;;;15.60;99.90;;;;;;5084457;28;20447;-60
2021/06/11 06:01:18;;;;;;;2.80;1.40;;;15.60;99.90;;;;;;5084617;28;20444;-60
2021/06/11 06:03:49;;;;;;;1.13;1.13;;;15.50;99.90;;;;;;5084772;28;20649;-60
2021/06/11 06:06:19;;;;;;;4.13;1.60;;;15.50;99.90;;;;;;5084090;28;20455;-60
2021/06/11 06:08:49;;;;;;;1.07;1.03;;;15.50;99.90;;;;;;5084481;28;20479;-59
2021/06/11 06:11:22;;;;;;;1.47;1.30;;;15.60;99.90;;;;;;5083561;28;20440;-60
2021/06/11 06:13:52;;;;;;;1.57;1.27;;;15.60;99.90;;;;;;5084534;28;20604;-59
2021/06/11 06:16:25;;;;;;;2.47;1.50;;;15.60;99.90;;;;;;5084826;28;20451;-59
2021/06/11 06:18:55;;;;;;;2.37;1.10;;;15.60;99.90;;;;;;5083373;28;20456;-60
2021/06/11 06:21:27;;;;;;;1.70;1.60;;;15.70;99.90;;;;;;5084152;28;20578;-59
2021/06/11 06:23:58;;;;;;;1.30;1.20;;;15.80;99.90;;;;;;5083395;28;20483;-59
2021/06/11 06:26:30;;;;;;;2.07;1.30;;;15.70;99.90;;;;;;5084291;28;20450;-59
2021/06/11 06:29:00;;;;;;;2.53;1.30;;;15.70;99.90;;;;;;5082738;28;20452;-59
2021/06/11 06:31:32;;;;;;;2.27;1.33;;;15.70;99.90;;;;;;5084365;28;20462;-59
2021/06/11 06:34:03;;;;;;;1.00;1.00;;;15.60;99.90;;;;;;5091312;28;20490;-58
2021/06/11 06:36:34;;;;;;;1.70;1.60;;;15.60;99.90;;;;;;5083683;28;20452;-59
2021/06/11 06:39:07;;;;;;;1.20;1.10;;;15.70;99.90;;;;;;5082183;28;20542;-59
2021/06/11 06:41:38;;;;;;;5.10;1.27;;;15.70;99.90;;;;;;5084360;28;20444;-59
2021/06/11 06:44:08;;;;;;;1.50;1.10;;;15.60;99.90;;;;;;5083379;28;20562;-59
2021/06/11 06:47:00;;;;;;;3.83;1.33;;;15.60;99.90;;;;;;5084143;28;20507;-61
2021/06/11 06:49:31;;;;;;;1.20;1.00;;;15.50;99.90;;;;;;5082992;28;20470;-61
2021/06/11 06:52:01;;;;;;;1.30;1.20;;;15.50;99.90;;;;;;5083386;28;20446;-59
2021/06/11 06:54:33;;;;;;;1.40;1.30;;;15.60;99.90;;;;;;5081343;28;20467;-59
2021/06/11 06:57:03;;;;;;;1.57;1.30;;;15.60;99.90;;;;;;5078049;28;20558;-60
2021/06/11 06:59:34;;;;;;;1.50;1.30;;;15.60;99.90;;;;;;5082665;28;20526;-60
2021/06/11 07:02:06;;;;;;;1.20;1.10;;;15.50;99.90;;;;;;5083337;28;20448;-59
2021/06/11 07:04:37;;;;;;;1.83;1.30;;;15.70;99.90;;;;;;5083272;28;20494;-60
2021/06/11 07:07:13;;;;;;;2.50;1.67;;;15.70;99.90;;;;;;5083420;28;20459;-60
2021/06/11 07:09:43;;;;;;;1.57;1.40;;;15.50;99.90;;;;;;5081720;28;20454;-60
2021/06/11 07:12:14;;;;;;;2.23;1.23;;;15.40;99.90;;;;;;5084046;28;20447;-60
2021/06/11 07:14:44;;;;;;;6.53;1.90;;;15.30;99.90;;;;;;5083428;28;20456;-59
2021/06/11 07:17:16;;;;;;;4.47;2.20;;;15.30;99.90;;;;;;5083683;28;20451;-59
2021/06/11 07:19:47;;;;;;;6.13;2.10;;;15.20;99.90;;;;;;5082386;28;20459;-60
2021/06/11 07:22:18;;;;;;;4.30;2.23;;;15.20;99.90;;;;;;5083233;28;20925;-59
2021/06/11 07:24:48;;;;;;;2.93;1.70;;;15.10;99.90;;;;;;5082260;28;20481;-60
2021/06/11 07:27:20;;;;;;;1.70;1.60;;;15.10;99.90;;;;;;5083638;28;20546;-59
2021/06/11 07:29:50;;;;;;;3.43;1.43;;;14.90;99.90;;;;;;5082432;28;20467;-59
2021/06/11 07:32:23;;;;;;;2.00;1.50;;;14.90;99.90;;;;;;5083231;28;20480;-59
2021/06/11 07:34:53;;;;;;;1.60;1.23;;;14.80;99.90;;;;;;5082955;28;20456;-59
2021/06/11 07:37:24;;;;;;;3.20;1.50;;;14.70;99.90;;;;;;5082635;28;20447;-59
2021/06/11 07:39:54;;;;;;;2.23;1.67;;;14.70;99.90;;;;;;5081902;28;20463;-59
2021/06/11 07:42:25;;;;;;;2.00;1.60;;;14.70;99.90;;;;;;5083089;28;20472;-59
2021/06/11 07:44:55;;;;;;;1.93;1.10;;;14.80;99.90;;;;;;5082841;28;20482;-59
2021/06/11 07:47:28;;;;;;;1.37;1.27;;;14.80;99.90;;;;;;5082826;28;20479;-59
2021/06/11 07:49:59;;;;;;;1.50;1.40;;;14.80;99.90;;;;;;5082329;28;20422;-59
2021/06/11 07:52:31;;;;;;;1.63;1.53;;;14.90;99.90;;;;;;5082155;28;20451;-59
2021/06/11 07:55:01;;;;;;;1.60;1.50;;;14.90;99.90;;;;;;5082370;28;20475;-60
2021/06/11 07:57:31;;;;;;;1.80;1.50;;;14.90;99.90;;;;;;5082935;28;20494;-60
2021/06/11 08:00:02;;;;;;;1.50;1.40;;;14.80;99.90;;;;;;5082238;28;20463;-59
2021/06/11 08:02:34;;;;;;;2.40;1.47;;;14.90;99.90;;;;;;5082888;28;20474;-60
2021/06/11 08:05:05;;;;;;;2.13;1.70;;;14.90;99.90;;;;;;5082790;28;20518;-59
2021/06/11 08:07:36;;;;;;;1.50;1.40;;;14.90;99.90;;;;;;5082475;28;20481;-60
2021/06/11 08:10:07;;;;;;;1.80;1.70;;;14.80;99.90;;;;;;5081578;28;20956;-59
2021/06/11 08:12:38;;;;;;;1.70;1.57;;;14.90;99.90;;;;;;5082989;28;20509;-59
2021/06/11 08:15:09;;;;;;;1.80;1.70;;;14.90;99.90;;;;;;5082071;28;20545;-59
2021/06/11 08:17:41;;;;;;;1.63;1.53;;;14.80;99.90;;;;;;5082560;28;20451;-59
2021/06/11 08:20:14;;;;;;;2.60;1.90;;;14.90;99.90;;;;;;5081866;28;20710;-59
2021/06/11 08:22:45;;;;;;;2.60;1.70;;;14.90;99.90;;;;;;5082652;28;20444;-59
2021/06/11 08:25:15;;;;;;;1.60;1.30;;;15.00;99.90;;;;;;5081422;28;20586;-60
2021/06/11 08:27:46;;;;;;;1.50;1.40;;;14.90;99.90;;;;;;5082975;28;20455;-59
2021/06/11 08:30:17;;;;;;;2.40;1.70;;;14.90;99.90;;;;;;5081896;28;20487;-60
2021/06/11 08:32:50;;;;;;;1.50;1.40;;;14.80;99.90;;;;;;5082605;28;20528;-60
2021/06/11 08:35:22;;;;;;;2.10;1.90;;;14.80;99.90;;;;;;5081257;28;20466;-60
2021/06/11 08:37:53;;;;;;;1.60;1.50;;;14.80;99.90;;;;;;5082960;28;20481;-59
2021/06/11 08:40:24;;;;;;;1.97;1.47;;;14.80;99.90;;;;;;5080892;28;20503;-60
2021/06/11 08:42:55;;;;;;;2.30;1.97;;;14.80;99.90;;;;;;5082948;28;20451;-60
2021/06/11 08:45:27;;;;;;;1.80;1.70;;;14.80;99.90;;;;;;5081389;28;20471;-60
2021/06/11 08:47:59;;;;;;;2.13;1.93;;;14.80;99.90;;;;;;5083056;28;20511;-60
2021/06/11 08:50:32;;;;;;;2.30;2.10;;;14.80;99.90;;;;;;5081894;28;20451;-60
2021/06/11 08:53:04;;;;;;;2.40;1.70;;;14.80;99.90;;;;;;5082586;28;20443;-59
2021/06/11 08:55:35;;;;;;;3.37;2.20;;;14.70;99.90;;;;;;5065962;28;20479;-59
2021/06/11 08:58:06;;;;;;;3.00;2.30;;;14.80;99.90;;;;;;5082714;28;20480;-59
2021/06/11 09:00:37;;;;;;;2.73;2.20;;;14.90;99.90;;;;;;5081547;28;20557;-59
2021/06/11 09:03:16;;;;;;;2.50;2.20;;;14.80;99.90;;;;;;5084203;28;20463;-59
2021/06/11 09:05:47;;;;;;;2.20;2.10;;;14.70;99.90;;;;;;5086010;28;20901;-59
2021/06/11 09:08:20;;;;;;;2.50;2.30;;;14.70;99.90;;;;;;5086036;28;20488;-59
2021/06/11 09:10:52;;;;;;;2.23;2.03;;;14.70;99.90;;;;;;5085043;28;20435;-60
2021/06/11 09:13:27;;;;;;;2.43;2.23;;;14.80;99.90;;;;;;5086044;28;20455;-59
2021/06/11 09:16:13;;;;;;;2.50;2.30;;;14.70;99.90;;;;;;5085954;28;20461;-59
2021/06/11 09:18:47;;;;;;;2.27;2.00;;;14.70;99.90;;;;;;5086165;28;20451;-59
2021/06/11 09:21:28;;;;;;;2.30;2.10;;;14.70;99.90;;;;;;5085150;28;20848;-59
2021/06/11 09:24:22;;;;;;;1.97;1.77;;;14.70;99.90;;;;;;5084580;28;20471;-59
2021/06/11 09:27:13;;;;;;;3.10;2.67;;;14.70;99.90;;;;;;5078987;28;20439;-59
2021/06/11 09:29:45;;;;;;;2.13;1.90;;;14.80;99.90;;;;;;5085566;28;20466;-58
2021/06/11 09:32:22;;;;;;;2.60;2.40;;;14.90;99.90;;;;;;5085893;28;20574;-59
2021/06/11 09:34:56;;;;;;;2.30;2.20;;;14.90;99.90;;;;;;5089310;28;20493;-59
2021/06/11 09:37:29;;;;;;;2.37;2.17;;;14.90;99.90;;;;;;5084671;28;20486;-59
2021/06/11 09:40:02;;;;;;;2.20;2.10;;;14.90;99.90;;;;;;5070965;28;20569;-59
2021/06/11 09:42:34;;;;;;;2.80;2.60;;;14.90;99.90;;;;;;5085756;28;20448;-60
2021/06/11 09:45:07;;;;;;;3.07;2.33;;;14.90;99.90;;;;;;5085334;28;20674;-59
2021/06/11 09:47:40;;;;;;;2.17;1.83;;;14.90;99.90;;;;;;5085655;28;20524;-60
2021/06/11 09:50:18;;;;;;;2.37;2.17;;;14.90;99.90;;;;;;5084875;28;20447;-58
2021/06/11 09:52:53;;;;;;;2.03;1.90;;;14.90;99.90;;;;;;5078143;28;20474;-60
2021/06/11 09:55:35;;;;;;;2.17;1.97;;;14.90;99.90;;;;;;5074938;28;20460;-60
2021/06/11 09:58:14;;;;;;;2.23;2.07;;;14.90;99.90;;;;;;5085563;28;20486;-60
2021/06/11 10:00:49;;;;;;;4.77;2.10;;;14.90;99.90;;;;;;5083755;28;20572;-59
2021/06/11 10:03:24;;;;;;;3.07;1.97;;;14.80;99.90;;;;;;5083246;28;20442;-60
2021/06/11 10:05:57;;;;;;;1.60;1.50;;;14.80;99.90;;;;;;5080363;28;20451;-60
2021/06/11 10:08:28;;;;;;;2.27;1.90;;;14.90;99.90;;;;;;5068683;28;20448;-60
2021/06/11 10:10:59;;;;;;;1.73;1.63;;;14.90;99.90;;;;;;5083580;28;20525;-59
2021/06/11 10:13:30;;;;;;;1.83;1.73;;;14.90;99.90;;;;;;5085064;28;20504;-60
2021/06/11 10:16:05;;;;;;;2.07;1.97;;;14.80;99.90;;;;;;5083747;28;20444;-60
2021/06/11 10:18:36;;;;;;;3.20;2.20;;;14.90;99.90;;;;;;5084588;28;21006;-60
2021/06/11 10:21:09;;;;;;;1.87;1.77;;;14.90;99.90;;;;;;5084401;28;20444;-60
2021/06/11 10:23:41;;;;;;;3.00;2.30;;;14.90;99.90;;;;;;5084688;28;20447;-60
2021/06/11 10:26:13;;;;;;;2.33;2.10;;;14.70;99.90;;;;;;5080969;28;20463;-59
2021/06/11 10:28:47;;;;;;;2.30;2.10;;;14.70;99.90;;;;;;5084540;28;20801;-60
2021/06/11 10:31:18;;;;;;;2.13;1.93;;;14.80;99.90;;;;;;5083830;28;20482;-59
2021/06/11 10:33:59;;;;;;;2.87;2.00;;;14.60;99.90;;;;;;5090621;28;20476;-59
2021/06/11 10:36:38;;;;;;;2.00;1.87;;;14.50;99.90;;;;;;5088565;28;20523;-60
2021/06/11 10:39:25;;;;;;;2.33;2.17;;;14.50;99.90;;;;;;5082827;28;20499;-60
2021/06/11 10:42:01;;;;;;;2.10;1.90;;;14.50;99.90;;;;;;5083935;28;20443;-59
2021/06/11 10:44:34;;;;;;;2.20;2.10;;;14.40;99.90;;;;;;5083767;28;20494;-59
2021/06/11 10:47:27;;;;;;;2.40;1.80;;;14.40;99.90;;;;;;5084170;28;20440;-60
2021/06/11 10:50:18;;;;;;;2.40;1.67;;;14.50;99.90;;;;;;5084240;28;20802;-60
2021/06/11 10:52:52;;;;;;;6.03;2.20;;;14.60;99.90;;;;;;5072371;28;20462;-60
2021/06/11 10:55:50;;;;;;;2.87;2.00;;;14.60;99.90;;;;;;5074671;28;20463;-60
2021/06/11 10:58:25;;;;;;;4.23;2.30;;;14.60;99.90;;;;;;5080587;28;20448;-59
2021/06/11 11:00:56;;;;;;;2.23;2.03;;;14.60;99.90;;;;;;5079739;28;20506;-60
2021/06/11 11:03:29;;;;;;;2.70;1.90;;;14.40;99.90;;;;;;5072873;28;20453;-60
2021/06/11 11:06:24;;;;;;;2.20;2.00;;;14.50;99.90;;;;;;5083046;28;20494;-60
2021/06/11 11:08:58;;;;;;;2.17;2.07;;;14.40;99.90;;;;;;5067203;28;20459;-60
2021/06/11 11:11:41;;;;;;;1.70;1.60;;;14.30;99.90;;;;;;5082869;28;20561;-59
2021/06/11 11:14:40;;;;;;;2.83;1.80;;;14.20;99.90;;;;;;5083449;28;20451;-60
2021/06/11 11:17:12;;;;;;;4.70;1.83;;;14.10;99.90;;;;;;5079509;28;20451;-60
2021/06/11 11:19:51;;;;;;;2.17;1.90;;;14.10;99.90;;;;;;5082946;28;20447;-60
2021/06/11 11:22:33;;;;;;;3.17;1.70;;;14.10;99.90;;;;;;5082378;28;20517;-58
2021/06/11 11:25:12;;;;;;;2.20;1.90;;;14.10;99.90;;;;;;5081786;28;20514;-60
2021/06/11 11:27:48;;;;;;;2.60;1.77;;;14.10;99.90;;;;;;5083810;28;20458;-60
2021/06/11 11:30:19;;;;;;;1.70;1.60;;;14.10;99.90;;;;;;5082687;28;20447;-60
2021/06/11 11:32:50;;;;;;;3.50;2.20;;;14.00;99.90;;;;;;5083285;28;20784;-60
2021/06/11 11:35:21;;;;;;;3.00;2.03;;;14.00;99.90;;;;;;5082957;28;20483;-60
2021/06/11 11:37:52;;;;;;;1.97;1.77;;;14.00;99.90;;;;;;5083351;28;20459;-60
2021/06/11 11:40:27;;;;;;;2.30;2.10;;;14.00;99.90;;;;;;5082082;28;20450;-60
2021/06/11 11:42:59;;;;;;;2.30;2.20;;;14.00;99.90;;;;;;5083345;28;20495;-60
2021/06/11 11:45:32;;;;;;;2.53;2.33;;;14.10;99.90;;;;;;5082640;28;20605;-60
2021/06/11 11:48:06;;;;;;;1.93;1.80;;;14.10;99.90;;;;;;5083574;28;20483;-60
2021/06/11 11:50:38;;;;;;;2.30;2.20;;;14.00;99.90;;;;;;5082259;28;20456;-60
2021/06/11 11:53:08;;;;;;;1.90;1.80;;;14.00;99.90;;;;;;5082869;28;20509;-60
2021/06/11 11:55:40;;;;;;;3.13;2.93;;;14.00;99.90;;;;;;5081823;28;20575;-60
2021/06/11 11:58:11;;;;;;;2.27;2.10;;;14.10;99.90;;;;;;5083421;28;20776;-60
2021/06/11 12:00:41;;;;;;;2.70;2.50;;;14.10;99.90;;;;;;5082289;28;20444;-60
2021/06/11 12:03:12;;;;;;;2.50;2.10;;;14.10;99.90;;;;;;5082731;28;20478;-60
2021/06/11 12:05:42;;;;;;;5.20;2.33;;;14.10;99.90;;;;;;5082462;28;20486;-60
2021/06/11 12:08:13;;;;;;;2.17;1.97;;;14.10;99.90;;;;;;5083287;28;20452;-59
2021/06/11 12:10:45;;;;;;;2.40;2.20;;;14.10;99.90;;;;;;5081413;28;20472;-60
2021/06/11 12:13:15;;;;;;;3.90;1.97;;;14.00;99.90;;;;;;5069714;28;20830;-60
2021/06/11 12:15:45;;;;;;;1.93;1.70;;;14.00;99.90;;;;;;5082441;28;20451;-60
2021/06/11 12:18:16;;;;;;;2.73;2.40;;;14.10;99.90;;;;;;5082831;28;20474;-60
2021/06/11 12:20:47;;;;;;;2.43;2.23;;;14.20;99.90;;;;;;5082030;28;20960;-59
2021/06/11 12:23:17;;;;;;;2.50;1.70;;;14.10;99.90;;;;;;5082194;28;20478;-59
2021/06/11 12:25:52;;;;;;;3.27;2.10;;;14.10;99.90;;;;;;5081840;28;20505;-60
2021/06/11 12:28:25;;;;;;;2.20;2.00;;;14.10;99.90;;;;;;5083239;28;20512;-60
2021/06/11 12:31:00;;;;;;;2.03;1.93;;;14.00;99.90;;;;;;5081627;28;20505;-60
2021/06/11 12:33:34;;;;;;;2.20;1.73;;;14.10;99.90;;;;;;5087282;28;20457;-60
2021/06/11 12:36:07;;;;;;;2.37;2.10;;;14.00;99.90;;;;;;5094701;28;20448;-60
2021/06/11 12:38:41;;;;;;;2.30;2.10;;;14.00;99.90;;;;;;5085434;28;20436;-59
2021/06/11 12:41:16;;;;;;;2.50;2.30;;;14.00;99.90;;;;;;5073770;28;20477;-60
2021/06/11 12:46:43;;;;;;;2.13;1.93;;;14.10;99.90;;;;;;5086360;28;20491;-60
2021/06/11 12:49:16;;;;;;;2.50;2.30;;;14.10;99.90;;;;;;5086248;28;20459;-60
2021/06/11 12:51:47;;;;;;;2.23;2.00;;;14.10;99.90;;;;;;5086032;28;20467;-59
2021/06/11 12:54:20;;;;;;;2.73;2.53;;;14.10;99.90;;;;;;5085355;28;20903;-60
2021/06/11 12:56:59;;;;;;;2.00;1.70;;;14.10;99.90;;;;;;5082497;28;20455;-60
2021/06/11 12:59:31;;;;;;;2.27;2.10;;;14.10;99.90;;;;;;5080358;28;20450;-60
2021/06/11 13:02:03;;;;;;;3.20;2.30;;;14.20;99.90;;;;;;5085382;28;20508;-60
2021/06/11 13:04:34;;;;;;;2.93;2.40;;;14.20;99.90;;;;;;5085456;28;20455;-60
2021/06/11 13:07:05;;;;;;;2.47;2.27;;;14.20;99.90;;;;;;5085836;28;20921;-60
2021/06/11 13:09:35;;;;;;;2.87;2.63;;;14.30;99.90;;;;;;5085027;28;20900;-60
2021/06/11 13:12:09;;;;;;;3.60;2.70;;;14.40;99.90;;;;;;5085642;28;20454;-59
2021/06/11 13:14:40;;;;;;;3.27;3.07;;;14.40;99.90;;;;;;5085466;28;20845;-60
2021/06/11 13:17:13;;;;;;;3.63;3.23;;;14.40;99.90;;;;;;5086126;28;20463;-60
2021/06/11 13:19:46;;;;;;;3.20;3.00;;;14.40;99.90;;;;;;5085082;28;20447;-59
2021/06/11 13:22:17;;;;;;;3.13;2.87;;;14.40;99.90;;;;;;5085712;28;20451;-60